createdAt,value
2022-09-11T00:04:33.490Z,65.35
2022-09-11T00:14:35.527Z,65.57
2022-09-11T00:24:37.187Z,65.68
2022-09-11T00:34:39.197Z,66.02
2022-09-11T00:44:42.026Z,65.88
2022-09-11T00:55:06.089Z,66.11
2022-09-11T01:05:08.483Z,67.31
2022-09-11T01:15:33.874Z,67.09
2022-09-11T01:25:53.979Z,67.20
2022-09-11T01:36:08.397Z,66.94
2022-09-11T01:46:16.501Z,66.95
2022-09-11T01:56:23.445Z,66.99
2022-09-11T02:06:36.486Z,66.35
2022-09-11T02:16:48.490Z,66.50
2022-09-11T02:26:54.251Z,67.01
2022-09-11T02:37:31.323Z,67.60
2022-09-11T02:47:45.061Z,67.99
2022-09-11T02:58:08.282Z,67.38
2022-09-11T03:08:11.968Z,67.91
2022-09-11T03:18:15.784Z,68.66
2022-09-11T03:28:17.405Z,68.87
2022-09-11T03:38:19.867Z,68.42
2022-09-11T03:48:21.704Z,68.40
2022-09-11T03:58:23.392Z,68.74
2022-09-11T04:08:25.567Z,68.74
2022-09-11T04:18:30.369Z,68.25
2022-09-11T04:28:31.962Z,68.61
2022-09-11T04:38:34.536Z,69.21
2022-09-11T04:48:37.859Z,69.03
2022-09-11T04:58:42.706Z,69.29
2022-09-11T05:08:45.900Z,69.82
2022-09-11T05:18:52.372Z,69.55
2022-09-11T05:28:57.858Z,69.45
2022-09-11T05:38:59.894Z,69.54
2022-09-11T05:49:01.494Z,70.64
2022-09-11T05:59:03.239Z,69.88
2022-09-11T06:09:10.342Z,68.54
2022-09-11T06:19:11.979Z,67.51
2022-09-11T06:29:14.908Z,67.71
2022-09-11T06:39:20.435Z,65.66
2022-09-11T06:49:22.053Z,66.39
2022-09-11T07:00:02.680Z,67.23
2022-09-11T07:10:10.958Z,65.57
2022-09-11T07:20:12.564Z,63.53
2022-09-11T07:30:14.830Z,63.46
2022-09-11T07:40:18.929Z,62.75
2022-09-11T07:50:20.868Z,63.11
2022-09-11T08:00:23.608Z,62.19
2022-09-11T08:10:38.804Z,62.51
2022-09-11T08:20:40.698Z,63.36
2022-09-11T08:30:43.255Z,64.47
2022-09-11T08:40:45.468Z,62.16
2022-09-11T08:50:49.530Z,54.02
2022-09-11T09:01:04.405Z,47.25
2022-09-11T09:11:36.246Z,45.72
2022-09-11T09:21:55.236Z,48.44
2022-09-11T09:32:04.420Z,49.22
2022-09-11T09:42:18.563Z,47.82
2022-09-11T09:52:24.658Z,46.79
2022-09-11T10:02:48.193Z,46.61
2022-09-11T10:12:50.028Z,47.00
2022-09-11T10:22:53.198Z,45.85
2022-09-11T10:32:58.081Z,46.09
2022-09-11T10:43:03.063Z,43.90
2022-09-11T10:53:23.299Z,45.06
2022-09-11T11:03:27.993Z,44.09
2022-09-11T11:13:48.023Z,43.97
2022-09-11T11:24:12.141Z,41.62
2022-09-11T11:34:22.614Z,37.53
2022-09-11T11:44:38.820Z,37.71
2022-09-11T11:54:59.932Z,38.78
2022-09-11T12:05:07.579Z,38.83
2022-09-11T12:15:19.772Z,36.27
2022-09-11T12:25:21.394Z,35.97
2022-09-11T12:35:45.182Z,37.54
2022-09-11T12:45:50.141Z,37.86
2022-09-11T12:55:57.795Z,36.12
2022-09-11T13:06:04.042Z,35.68
2022-09-11T13:16:22.758Z,32.27
2022-09-11T13:26:31.994Z,34.99
2022-09-11T13:36:36.266Z,35.90
2022-09-11T13:46:50.231Z,35.84
2022-09-11T13:56:54.798Z,37.00
2022-09-11T14:06:56.664Z,37.15
2022-09-11T14:17:01.349Z,37.48
2022-09-11T14:27:24.287Z,38.56
2022-09-11T14:37:28.240Z,35.15
2022-09-11T14:47:29.772Z,33.27
2022-09-11T14:57:33.913Z,34.57
2022-09-11T15:07:36.397Z,35.08
2022-09-11T15:17:38.087Z,35.94
2022-09-11T15:27:40.089Z,37.45
2022-09-11T15:37:42.111Z,39.99
2022-09-11T15:47:44.680Z,40.26
2022-09-11T15:57:46.171Z,40.34
2022-09-11T16:07:48.158Z,41.35
2022-09-11T16:17:49.772Z,41.97
2022-09-11T16:27:55.649Z,41.51
2022-09-11T16:37:57.597Z,42.22
2022-09-11T16:48:00.000Z,42.72
2022-09-11T16:58:01.513Z,43.36
2022-09-11T17:08:03.533Z,44.37
2022-09-11T17:18:05.007Z,45.16
2022-09-11T17:28:08.058Z,46.54
2022-09-11T17:38:11.139Z,48.06
2022-09-11T17:48:13.439Z,49.13
2022-09-11T17:58:14.932Z,49.84
2022-09-11T18:08:16.381Z,51.37
2022-09-11T18:18:18.006Z,53.21
2022-09-11T18:28:20.138Z,53.51
2022-09-11T18:38:21.712Z,54.19
2022-09-11T18:48:23.284Z,54.37
2022-09-11T18:58:25.119Z,54.72
2022-09-11T19:08:26.572Z,56.65
2022-09-11T19:18:28.040Z,56.59
2022-09-11T19:28:31.073Z,57.54
2022-09-11T19:38:36.665Z,58.96
2022-09-11T19:48:40.480Z,60.54
2022-09-11T19:58:42.960Z,61.90
2022-09-11T20:08:48.008Z,62.13
2022-09-11T20:18:54.091Z,62.00
2022-09-11T20:28:58.261Z,63.73
2022-09-11T20:39:00.632Z,65.44
2022-09-11T20:49:03.351Z,65.50
2022-09-11T20:59:08.434Z,65.36
2022-09-11T21:09:11.418Z,66.03
2022-09-11T21:19:12.938Z,68.02
2022-09-11T21:29:14.746Z,67.35
2022-09-11T21:39:16.302Z,68.27
2022-09-11T21:49:17.814Z,67.49
2022-09-11T21:59:20.364Z,67.38
2022-09-11T22:09:22.997Z,67.89
2022-09-11T22:19:25.480Z,68.65
2022-09-11T22:29:27.782Z,68.32
2022-09-11T22:39:33.635Z,69.35
2022-09-11T22:49:36.760Z,69.28
2022-09-11T22:59:39.730Z,68.79
2022-09-11T23:09:42.003Z,68.97
2022-09-11T23:19:45.424Z,70.04
2022-09-11T23:29:47.874Z,70.04
2022-09-11T23:39:50.785Z,70.16
2022-09-11T23:49:56.241Z,71.02
2022-09-11T23:59:58.573Z,70.22
